Latest Weather Observations for Dum In Mirrie

IDD60801

Issued at 2:31 pm CST Tuesday 30 May 2017 (issued every 30 minutes, with the page automatically refreshed every 10 minutes)

About weather observations | Map of weather stations | Latest weather observations for NT | Other Formats
Station Details ID: 014277 Name: DUM IN MIRRIE AIRSTRIP Lat: -12.63 Lon: 130.37 Height: 3.5 m
Data from the previous 72 hours. | See also: Recent months at Dum In Mirrie
Date/Time
CST
Temp
°C
App
Temp
°C
Dew
Point
°C
Rel
Hum
%
Delta-T
°C
Wind Press
QNH
hPa
Press
MSL
hPa
Rain since
9am
mm
Dir  Spd
km/h
Gust
km/h
Spd
kts
Gust
kts
30/02:30pm 32.3 30.0 10.4 26 12.6 E 13 20 7 11 1011.7 1011.7 0.0
30/02:00pm 31.8 28.2 9.9 26 12.5 ESE 19 30 10 16 1011.8 1011.8 0.0
30/01:30pm 31.9 29.8 11.1 28 12.1 ESE 13 24 7 13 1012.4 1012.4 0.0
30/01:00pm 31.5 28.2 10.8 28 11.9 E 19 30 10 16 1012.9 1012.9 0.0
30/12:30pm 31.2 28.0 11.1 29 11.6 E 19 28 10 15 1013.3 1013.3 0.0
30/12:00pm 31.0 27.8 11.4 30 11.4 ESE 19 28 10 15 1013.4 1013.4 0.0
30/11:30am 30.6 28.2 11.5 30 11.1 ESE 15 28 8 15 1013.8 1013.8 0.0
30/11:00am 29.6 28.2 13.4 37 9.6 ESE 13 24 7 13 1014.0 1014.0 0.0
30/10:30am 28.1 25.9 13.2 39 8.8 ESE 17 32 9 17 1014.4 1014.4 0.0
30/10:00am 27.7 26.7 15.7 48 7.4 ESE 15 26 8 14 1014.6 1014.6 0.0
30/09:30am 26.6 25.6 15.6 50 6.7 ESE 15 28 8 15 1014.7 1014.7 0.0
30/09:00am 26.0 26.0 16.3 55 6.0 ESE 11 20 6 11 1014.7 1014.7 0.0
30/08:30am 24.7 24.9 16.7 61 4.9 ESE 11 19 6 10 1014.7 1014.7 0.0
30/08:00am 24.5 24.3 16.7 61 4.8 ESE 13 22 7 12 1014.4 1014.4 0.0
30/07:30am 23.8 24.2 16.3 63 4.6 ESE 9 20 5 11 1014.2 1014.2 0.0
30/07:00am 23.7 24.1 16.2 63 4.6 ESE 9 17 5 9 1013.9 1013.9 0.0
30/06:30am 23.8 24.2 16.3 63 4.6 ESE 9 17 5 9 1013.4 1013.4 0.0
30/06:00am 24.0 24.1 16.5 63 4.6 ESE 11 17 6 9 1013.2 1013.2 0.0
30/05:30am 24.4 24.5 16.6 61 4.8 ESE 11 19 6 10 1013.0 1013.0 0.0
30/05:00am 23.8 24.8 16.8 65 4.3 ESE 7 11 4 6 1013.0 1013.0 0.0
30/04:30am 23.6 25.1 17.6 69 3.7 ESE 6 9 3 5 1012.9 1012.9 0.0
30/04:00am 23.5 25.7 18.4 73 3.2 SE 4 7 2 4 1012.9 1012.9 0.0
30/03:30am 23.3 26.1 18.8 76 2.8 ESE 2 4 1 2 1012.8 1012.8 0.0
30/03:00am 23.1 26.0 19.9 82 2.1 ESE 4 6 2 3 1012.9 1012.9 0.0
30/02:30am 22.6 26.2 19.8 84 1.8 CALM 0 0 0 0 1013.0 1013.0 0.0
30/02:00am 23.9 27.3 20.2 80 2.4 SSE 2 6 1 3 1013.0 1013.0 0.0
30/01:30am 24.7 28.5 21.0 80 2.4 SE 2 6 1 3 1013.1 1013.1 0.0
30/01:00am 24.8 28.9 20.7 78 2.7 CALM 0 4 0 2 1013.0 1013.0 0.0
30/12:30am 24.8 28.3 21.1 80 2.4 S 4 7 2 4 1013.1 1013.1 0.0
30/12:00am 24.8 28.5 22.3 86 1.7 S 6 9 3 5 1013.1 1013.1 0.0
 
Date/Time
CST
Temp
°C
App
Temp
°C
Dew
Point
°C
Rel
Hum
%
Delta-T
°C
Wind Press
QNH
hPa
Press
MSL
hPa
Rain since
9am
mm
Dir  Spd
km/h
Gust
km/h
Spd
kts
Gust
kts
29/11:30pm 23.2 27.6 21.3 89 1.2 CALM 0 0 0 0 1012.8 1012.8 0.0
29/11:00pm 23.2 27.0 20.9 87 1.5 SE 2 4 1 2 1013.0 1013.0 0.0
29/10:30pm 23.5 27.5 20.6 84 1.9 CALM 0 0 0 0 1013.0 1013.0 0.0
29/10:00pm 24.3 28.3 20.6 80 2.4 CALM 0 0 0 0 1012.9 1012.9 0.0
29/09:30pm 25.2 28.9 20.7 76 2.9 NE 2 4 1 2 1012.9 1012.9 0.0
29/09:00pm 26.2 29.6 21.0 73 3.4 NE 4 7 2 4 1013.0 1013.0 0.0
29/08:30pm 26.6 29.6 20.9 71 3.8 NE 6 9 3 5 1012.8 1012.8 0.0
29/08:00pm 27.0 29.8 20.8 69 4.1 NE 7 13 4 7 1012.5 1012.5 0.0
29/07:30pm 27.1 29.9 20.9 69 4.1 NE 7 13 4 7 1012.1 1012.1 0.0
29/07:00pm 27.2 30.0 20.8 68 4.2 NE 7 15 4 8 1011.8 1011.8 0.0
29/06:30pm 27.6 29.4 20.4 65 4.7 NE 11 19 6 10 1011.6 1011.6 0.0
29/06:00pm 28.2 29.9 20.2 62 5.3 NE 11 20 6 11 1011.0 1011.0 0.0
29/05:30pm 28.7 30.5 20.4 60 5.5 NNE 11 20 6 11 1010.8 1010.8 0.0
29/05:00pm 29.6 30.7 20.5 58 6.0 NNE 15 24 8 13 1010.6 1010.6 0.0
29/04:30pm 29.5 30.9 20.4 58 6.0 NNE 13 20 7 11 1010.4 1010.4 0.0
29/04:00pm 32.2 31.9 16.5 39 9.9 ENE 13 20 7 11 1010.2 1010.2 0.0
29/03:30pm 32.9 32.9 16.3 37 10.5 ENE 11 24 6 13 1010.1 1010.1 0.0
29/03:00pm 32.3 31.1 16.2 38 10.1 ENE 17 26 9 14 1010.4 1010.4 0.0
29/02:30pm 32.5 31.1 15.5 36 10.6 ENE 17 28 9 15 1010.5 1010.5 0.0
29/02:00pm 32.5 31.7 17.2 40 9.7 ENE 17 24 9 13 1010.6 1010.6 0.0
29/01:30pm 32.3 31.1 16.2 38 10.1 ENE 17 26 9 14 1010.9 1010.9 0.0
29/01:00pm 32.0 31.0 16.7 40 9.7 ENE 17 32 9 17 1011.3 1011.3 0.0
29/12:30pm 31.3 29.7 16.1 40 9.5 ENE 19 33 10 18 1011.8 1011.8 0.0
29/12:00pm 31.0 29.6 16.6 42 9.1 ENE 19 28 10 15 1012.4 1012.4 0.0
29/11:30am 30.6 28.8 15.5 40 9.3 E 19 32 10 17 1012.4 1012.4 0.0
29/11:00am 30.1 28.1 15.0 40 9.2 E 19 30 10 16 1013.0 1013.0 0.0
29/10:30am 29.5 28.4 16.3 45 8.2 E 17 30 9 16 1012.9 1012.9 0.0
29/10:00am 29.1 28.3 17.0 48 7.6 E 17 30 9 16 1013.1 1013.1 0.0
29/09:30am 28.7 28.3 17.2 49 7.2 E 15 24 8 13 1012.9 1012.9 0.0
29/09:00am 27.4 27.4 17.3 54 6.3 ESE 13 22 7 12 1013.0 1013.0 0.0
29/08:30am 26.0 26.9 17.6 60 5.3 ESE 9 22 5 12 1012.8 1012.8 0.0
29/08:00am 25.9 26.3 17.3 59 5.4 E 11 17 6 9 1012.3 1012.3 0.0
29/07:30am 25.3 26.1 17.2 61 5.0 ESE 9 17 5 9 1012.0 1012.0 0.0
29/07:00am 25.1 25.8 17.1 61 5.0 ESE 9 17 5 9 1011.9 1011.9 0.0
29/06:30am 25.0 25.7 17.0 61 5.0 ESE 9 17 5 9 1011.7 1011.7 0.0
29/06:00am 25.3 25.9 16.7 59 5.3 ESE 9 15 5 8 1011.6 1011.6 0.0
29/05:30am 25.4 25.9 16.5 58 5.5 ESE 9 15 5 8 1011.3 1011.3 0.0
29/05:00am 25.4 25.8 16.3 57 5.6 ESE 9 20 5 11 1011.1 1011.1 0.0
29/04:30am 25.5 25.6 16.4 57 5.6 ESE 11 17 6 9 1010.9 1010.9 0.0
29/04:00am 25.4 25.3 16.0 56 5.7 ESE 11 17 6 9 1010.9 1010.9 0.0
29/03:30am 25.5 26.2 16.1 56 5.8 ESE 7 13 4 7 1011.1 1011.1 0.0
29/03:00am 25.2 26.2 16.9 60 5.1 ESE 7 11 4 6 1011.2 1011.2 0.0
29/02:30am 24.7 27.1 17.9 66 4.3 SE 2 6 1 3 1011.6 1011.6 0.0
29/02:00am 24.7 28.4 20.8 79 2.6 ESE 2 4 1 2 1011.4 1011.4 0.0
29/01:30am 24.7 29.9 22.8 89 1.3 CALM 0 0 0 0 1011.8 1011.8 0.0
29/01:00am 25.1 30.5 23.3 90 1.2 CALM 0 0 0 0 1011.7 1011.7 0.0
29/12:30am 25.0 30.0 23.2 90 1.2 SSE 2 6 1 3 1011.6 1011.6 0.0
29/12:00am 24.3 28.9 21.8 86 1.7 CALM 0 4 0 2 1011.8 1011.8 0.0
 
Date/Time
CST
Temp
°C
App
Temp
°C
Dew
Point
°C
Rel
Hum
%
Delta-T
°C
Wind Press
QNH
hPa
Press
MSL
hPa
Rain since
9am
mm
Dir  Spd
km/h
Gust
km/h
Spd
kts
Gust
kts
28/11:30pm 24.1 28.5 21.4 85 1.8 CALM 0 0 0 0 1011.9 1011.9 0.0
28/11:00pm 24.1 28.5 21.4 85 1.8 CALM 0 0 0 0 1012.0 1012.0 0.0
28/10:30pm 24.4 28.9 21.5 84 1.9 CALM 0 0 0 0 1012.1 1012.1 0.0
28/10:00pm 24.5 29.0 21.6 84 1.9 CALM 0 0 0 0 1012.1 1012.1 0.0
28/09:30pm 24.4 28.9 21.5 84 1.9 CALM 0 0 0 0 1012.1 1012.1 0.0
28/09:00pm 24.0 28.2 20.9 83 2.0 CALM 0 0 0 0 1011.9 1011.9 0.0
28/08:30pm 24.6 28.8 20.9 80 2.4 CALM 0 0 0 0 1011.4 1011.4 0.0
28/08:00pm 25.4 29.7 21.1 77 2.8 CALM 0 0 0 0 1011.1 1011.1 0.0
28/07:30pm 26.0 30.2 21.0 74 3.3 CALM 0 0 0 0 1010.8 1010.8 0.0
28/07:00pm 26.9 31.1 21.0 70 3.9 CALM 0 0 0 0 1010.5 1010.5 0.0
28/06:30pm 27.6 31.2 21.2 68 4.3 N 4 6 2 3 1010.1 1010.1 0.0
28/06:00pm 28.1 31.0 19.9 61 5.4 NNE 4 6 2 3 1010.0 1010.0 0.0
28/05:30pm 29.4 32.0 18.5 52 7.0 E 2 4 1 2 1009.8 1009.8 0.0
28/05:00pm 30.2 32.0 17.3 46 8.2 E 4 6 2 3 1009.7 1009.7 0.0
28/04:30pm 30.8 32.0 16.8 43 8.8 E 6 9 3 5 1009.6 1009.6 0.0
28/04:00pm 31.3 31.7 15.3 38 9.9 E 7 13 4 7 1009.5 1009.5 0.0
28/03:30pm 31.6 31.7 15.5 37 10.0 E 9 15 5 8 1009.6 1009.6 0.0
28/03:00pm 32.2 31.7 14.8 35 10.7 ESE 11 17 6 9 1009.8 1009.8 0.0
28/02:30pm 32.8 33.0 15.8 36 10.6 ESE 9 17 5 9 1009.9 1009.9 0.0
28/02:00pm 32.5 32.5 16.3 37 10.2 ESE 11 20 6 11 1010.0 1010.0 0.0
28/01:30pm 31.0 29.8 15.0 38 9.8 ESE 15 24 8 13 1010.3 1010.3 0.0
28/01:00pm 31.4 31.5 16.6 41 9.3 E 11 20 6 11 1010.7 1010.7 0.0
28/12:30pm 31.2 31.0 16.8 42 9.1 E 13 22 7 12 1011.2 1011.2 0.0
28/12:00pm 31.1 30.9 16.7 42 9.1 E 13 20 7 11 1011.6 1011.6 0.0
28/11:30am 30.4 30.2 16.8 44 8.6 E 13 20 7 11 1012.1 1012.1 0.0
28/11:00am 30.4 30.2 17.5 46 8.2 E 15 26 8 14 1012.4 1012.4 0.0
28/10:30am 29.4 29.8 18.2 51 7.2 E 13 22 7 12 1012.8 1012.8 0.0
28/10:00am 28.9 28.7 18.4 53 6.7 E 17 24 9 13 1013.1 1013.1 0.0
28/09:30am 28.5 29.0 18.3 54 6.5 E 13 20 7 11 1013.0 1013.0 0.0
28/09:00am 27.4 28.3 18.4 58 5.7 ESE 11 19 6 10 1012.9 1012.9 -
28/08:30am 26.2 27.2 18.6 63 4.8 E 11 17 6 9 1012.5 1012.5 -
28/08:00am 25.6 27.7 19.3 68 4.0 ESE 7 13 4 7 1012.1 1012.1 -
28/07:30am 24.5 26.7 19.6 74 3.2 ESE 7 11 4 6 1011.8 1011.8 -
28/07:00am 23.0 25.5 19.8 82 2.1 ESE 6 7 3 4 1011.5 1011.5 -
28/06:30am 22.7 25.6 19.9 84 1.8 SE 4 6 2 3 1011.4 1011.4 -
28/06:00am 22.7 25.2 19.1 80 2.3 ESE 4 4 2 2 1011.2 1011.2 -
28/05:30am 23.3 25.9 19.2 78 2.6 SE 4 4 2 2 1011.0 1011.0 -
28/05:00am 23.7 26.1 18.8 74 3.1 ESE 4 6 2 3 1010.8 1010.8 -
28/04:30am 24.2 26.6 18.8 72 3.4 ESE 4 6 2 3 1010.9 1010.9 -
28/04:00am 24.4 26.5 19.0 72 3.4 ESE 6 7 3 4 1011.0 1011.0 -
28/03:30am 24.0 27.8 20.1 79 2.5 CALM 0 4 0 2 1011.2 1011.2 -
28/03:00am 24.3 27.8 20.4 79 2.5 SE 2 4 1 2 1011.4 1011.4 0.0
28/02:30am 24.5 28.1 20.6 79 2.5 SE 2 6 1 3 1011.5 1011.5 -
28/02:00am 24.4 27.9 21.1 82 2.2 SSE 4 6 2 3 1011.7 1011.7 -
28/01:30am 24.6 28.8 21.7 84 1.9 SSE 2 6 1 3 1011.8 1011.8 -
28/01:00am 24.8 29.0 21.7 83 2.1 SSE 2 6 1 3 1011.9 1011.9 -
28/12:30am 25.0 29.1 22.3 85 1.8 SSE 4 6 2 3 1012.0 1012.0 -
28/12:00am 24.0 27.2 20.5 81 2.3 ENE 4 4 2 2 1012.0 1012.0 -
 
Date/Time
CST
Temp
°C
App
Temp
°C
Dew
Point
°C
Rel
Hum
%
Delta-T
°C
Wind Press
QNH
hPa
Press
MSL
hPa
Rain since
9am
mm
Dir  Spd
km/h
Gust
km/h
Spd
kts
Gust
kts
27/11:30pm 24.8 28.1 20.7 78 2.7 ENE 4 4 2 2 1012.2 1012.2 -
27/11:00pm 25.7 29.0 20.7 74 3.3 NE 4 6 2 3 1012.3 1012.3 -
27/10:30pm 25.9 29.1 20.5 72 3.5 NE 4 6 2 3 1012.2 1012.2 -
27/10:00pm 26.6 29.8 20.4 69 4.1 ENE 4 6 2 3 1012.1 1012.1 -
27/09:30pm 26.7 30.0 20.8 70 3.9 NE 4 6 2 3 1012.2 1012.2 -
27/09:00pm 26.9 30.1 20.5 68 4.2 NE 4 6 2 3 1012.0 1012.0 0.0
27/08:30pm 27.1 30.3 20.4 66 4.4 NE 4 6 2 3 1011.8 1011.8 -
27/08:00pm 27.2 30.2 20.0 64 4.7 NE 4 7 2 4 1011.4 1011.4 -
27/07:30pm 27.5 29.9 19.6 62 5.1 NE 6 11 3 6 1011.0 1011.0 -
27/07:00pm 27.6 29.6 19.1 59 5.5 NNE 7 11 4 6 1010.7 1010.7 -
27/06:30pm 27.9 29.9 19.1 58 5.7 NNE 7 11 4 6 1010.4 1010.4 -
27/06:00pm 28.5 30.5 19.2 57 6.0 NNE 7 15 4 8 1010.0 1010.0 -
27/05:30pm 29.4 30.6 19.1 54 6.7 NNE 11 19 6 10 1009.8 1009.8 -
27/05:00pm 32.2 32.1 13.4 32 11.3 E 6 13 3 7 1009.5 1009.5 -
27/04:30pm 32.8 31.8 12.4 29 12.1 E 9 15 5 8 1009.4 1009.4 -
27/04:00pm 32.6 31.0 11.7 28 12.3 E 11 17 6 9 1009.2 1009.2 -
27/03:30pm 32.7 30.4 11.8 28 12.3 E 15 24 8 13 1009.3 1009.3 -
27/03:00pm 32.6 31.0 12.8 30 11.8 E 13 19 7 10 1009.6 1009.6 -

Other Formats:

Comma delimited format used in spreadsheet applications
http://www.bom.gov.au/fwo/IDD60801/IDD60801.94116.axf

JavaScript Object Notation format (JSON) in row-major order
http://www.bom.gov.au/fwo/IDD60801/IDD60801.94116.json